Time;durP1;ratioP1;P1;durP2;ratioP2;P2;SDS_P1;SDS_P2;PMS_P1;PMS_P2;Temp;Humidity;BMP_temperature;BMP_pressure;BME280_temperature;BME280_humidity;BME280_pressure;Samples;Min_cycle;Max_cycle;Signal;HPM_P1;HPM_P2
2022/05/16 00:01:28;;;;;;;;;2.00;2.00;;;;;;;;4991308;28;45467;-76
2022/05/16 00:03:54;;;;;;;;;2.00;1.00;;;;;;;;4987203;28;45418;-76
2022/05/16 00:06:19;;;;;;;;;0.33;0.33;;;;;;;;4995152;28;45285;-75
2022/05/16 00:08:44;;;;;;;;;1.00;1.00;;;;;;;;4994684;28;45281;-77
2022/05/16 00:11:09;;;;;;;;;3.00;2.00;;;;;;;;4995251;28;45419;-78
2022/05/16 00:13:35;;;;;;;;;1.67;1.67;;;;;;;;4998114;28;45279;-77
2022/05/16 00:16:00;;;;;;;;;2.00;1.00;;;;;;;;4998310;28;45363;-76
2022/05/16 00:18:26;;;;;;;;;2.00;2.00;;;;;;;;4997873;28;46068;-77
2022/05/16 00:20:51;;;;;;;;;0.00;0.00;;;;;;;;4998682;28;45452;-77
2022/05/16 00:23:16;;;;;;;;;1.33;1.33;;;;;;;;4987030;28;45325;-77
2022/05/16 00:25:41;;;;;;;;;0.33;0.33;;;;;;;;4996032;28;45325;-76
2022/05/16 00:28:06;;;;;;;;;2.67;1.00;;;;;;;;5005424;28;48261;-76
2022/05/16 00:30:31;;;;;;;;;5.33;2.00;;;;;;;;4998380;28;45424;-76
2022/05/16 00:32:57;;;;;;;;;1.67;1.67;;;;;;;;4982736;28;45404;-77
2022/05/16 00:35:22;;;;;;;;;1.00;1.00;;;;;;;;4985818;28;45542;-76
2022/05/16 00:37:48;;;;;;;;;2.00;2.00;;;;;;;;4995711;28;46500;-77
2022/05/16 00:40:14;;;;;;;;;2.00;2.00;;;;;;;;4997915;28;45294;-77
2022/05/16 00:42:39;;;;;;;;;1.00;1.00;;;;;;;;4998184;28;45501;-77
2022/05/16 00:45:06;;;;;;;;;0.00;0.00;;;;;;;;4998925;28;45476;-77
2022/05/16 00:47:32;;;;;;;;;3.00;3.00;;;;;;;;4995630;28;46185;-76
2022/05/16 00:49:58;;;;;;;;;1.67;1.67;;;;;;;;4988359;28;45640;-76
2022/05/16 00:52:26;;;;;;;;;0.33;0.33;;;;;;;;4985196;28;45582;-77
2022/05/16 00:54:54;;;;;;;;;1.67;1.00;;;;;;;;4987718;28;45421;-76
2022/05/16 00:57:20;;;;;;;;;1.00;1.00;;;;;;;;5008820;28;45479;-75
2022/05/16 00:59:51;;;;;;;;;3.67;2.00;;;;;;;;4998366;28;45412;-75
2022/05/16 01:05:01;;;;;;;;;1.00;1.00;;;;;;;;4996476;28;45437;-75
2022/05/16 01:07:28;;;;;;;;;3.00;2.00;;;;;;;;4997524;28;46011;-76
2022/05/16 01:09:53;;;;;;;;;0.67;0.67;;;;;;;;4996631;28;45611;-77
2022/05/16 01:12:19;;;;;;;;;1.00;1.00;;;;;;;;4980831;28;45310;-77
2022/05/16 01:14:48;;;;;;;;;1.67;1.67;;;;;;;;4983003;28;45382;-76
2022/05/16 01:17:14;;;;;;;;;2.67;1.67;;;;;;;;4997469;28;46214;-75
2022/05/16 01:19:39;;;;;;;;;3.00;3.00;;;;;;;;4997317;28;45481;-76
2022/05/16 01:22:20;;;;;;;;;1.00;1.00;;;;;;;;4995294;28;45671;-76
2022/05/16 01:24:45;;;;;;;;;3.00;0.33;;;;;;;;4984858;28;45528;-76
2022/05/16 01:27:10;;;;;;;;;1.00;1.00;;;;;;;;4981146;28;47444;-76
2022/05/16 01:29:35;;;;;;;;;2.00;2.00;;;;;;;;4992703;28;45345;-76
2022/05/16 01:32:01;;;;;;;;;2.67;2.67;;;;;;;;4998726;28;45420;-75
2022/05/16 01:34:26;;;;;;;;;1.00;1.00;;;;;;;;5003615;28;45480;-76
2022/05/16 01:36:51;;;;;;;;;0.33;0.33;;;;;;;;4996725;28;46165;-76
2022/05/16 01:39:16;;;;;;;;;2.00;2.00;;;;;;;;4981796;28;45513;-75
2022/05/16 01:41:41;;;;;;;;;0.00;0.00;;;;;;;;4997210;28;45411;-77
2022/05/16 01:44:07;;;;;;;;;1.00;1.00;;;;;;;;4986690;28;45512;-76
2022/05/16 01:46:34;;;;;;;;;1.00;1.00;;;;;;;;4992561;28;45656;-77
2022/05/16 01:48:59;;;;;;;;;1.67;0.00;;;;;;;;4996882;28;45583;-76
2022/05/16 01:51:24;;;;;;;;;1.00;1.00;;;;;;;;4996838;28;45516;-76
2022/05/16 01:53:50;;;;;;;;;1.00;0.67;;;;;;;;4985092;28;45462;-74
2022/05/16 01:56:16;;;;;;;;;1.33;1.33;;;;;;;;5005473;28;46256;-76
2022/05/16 01:58:41;;;;;;;;;2.00;0.67;;;;;;;;5004579;28;45339;-76
2022/05/16 02:01:07;;;;;;;;;1.00;1.00;;;;;;;;4997246;28;45366;-76
2022/05/16 02:03:32;;;;;;;;;1.00;1.00;;;;;;;;4996914;28;45499;-76
2022/05/16 02:05:58;;;;;;;;;1.33;1.33;;;;;;;;4981422;28;46253;-76
2022/05/16 02:08:23;;;;;;;;;1.00;1.00;;;;;;;;4984789;28;45306;-76
2022/05/16 02:10:48;;;;;;;;;1.75;1.75;;;;;;;;4980606;28;45846;-76
2022/05/16 02:13:14;;;;;;;;;2.00;2.00;;;;;;;;4988731;28;45554;-76
2022/05/16 02:15:40;;;;;;;;;2.00;0.33;;;;;;;;4996661;28;46351;-76
2022/05/16 02:18:07;;;;;;;;;2.00;2.00;;;;;;;;4980974;28;45393;-77
2022/05/16 02:20:32;;;;;;;;;1.67;1.33;;;;;;;;4989811;28;45324;-74
2022/05/16 02:25:47;;;;;;;;;1.00;1.00;;;;;;;;4996166;28;45395;-75
2022/05/16 02:28:14;;;;;;;;;2.33;2.33;;;;;;;;4995975;28;45412;-75
2022/05/16 02:30:39;;;;;;;;;3.00;1.00;;;;;;;;4996403;28;45372;-76
2022/05/16 02:33:05;;;;;;;;;1.67;1.33;;;;;;;;4996613;28;45293;-76
2022/05/16 02:35:30;;;;;;;;;2.00;2.00;;;;;;;;4983487;28;47141;-76
2022/05/16 02:37:59;;;;;;;;;3.50;2.00;;;;;;;;4995619;28;45496;-76
2022/05/16 02:40:28;;;;;;;;;1.67;1.67;;;;;;;;4996801;28;45585;-77
2022/05/16 02:42:53;;;;;;;;;0.00;0.00;;;;;;;;4995553;28;45440;-76
2022/05/16 02:45:19;;;;;;;;;1.33;1.33;;;;;;;;4989315;28;46201;-76
2022/05/16 02:47:44;;;;;;;;;4.33;2.00;;;;;;;;5007162;28;45444;-77
2022/05/16 02:50:10;;;;;;;;;0.33;0.33;;;;;;;;4980859;28;45543;-76
2022/05/16 02:52:35;;;;;;;;;1.00;1.00;;;;;;;;4990635;28;45316;-76
2022/05/16 02:55:00;;;;;;;;;2.00;2.00;;;;;;;;4995462;28;45410;-76
2022/05/16 02:57:26;;;;;;;;;1.67;0.67;;;;;;;;5004000;28;45500;-75
2022/05/16 02:59:51;;;;;;;;;1.33;1.33;;;;;;;;4996365;28;45388;-76
2022/05/16 03:02:17;;;;;;;;;2.00;2.00;;;;;;;;4996277;28;45520;-76
2022/05/16 03:04:42;;;;;;;;;3.00;3.00;;;;;;;;4994346;28;46225;-77
2022/05/16 03:07:08;;;;;;;;;1.67;1.67;;;;;;;;4995544;28;45385;-76
2022/05/16 03:09:33;;;;;;;;;3.33;1.33;;;;;;;;5003498;28;45453;-76
2022/05/16 03:11:59;;;;;;;;;1.33;1.33;;;;;;;;4980304;28;45428;-76
2022/05/16 03:14:24;;;;;;;;;3.00;2.25;;;;;;;;4995177;28;46560;-77
2022/05/16 03:16:49;;;;;;;;;2.75;2.00;;;;;;;;4995727;28;45943;-77
2022/05/16 03:19:14;;;;;;;;;1.00;1.00;;;;;;;;4992349;28;45479;-76
2022/05/16 03:21:40;;;;;;;;;1.00;1.00;;;;;;;;4983367;28;45176;-77
2022/05/16 03:24:05;;;;;;;;;2.25;1.00;;;;;;;;4995353;28;46217;-77
2022/05/16 03:26:31;;;;;;;;;2.00;2.00;;;;;;;;4998932;28;45384;-76
2022/05/16 03:28:56;;;;;;;;;2.00;2.00;;;;;;;;4997196;28;45344;-75
2022/05/16 03:31:21;;;;;;;;;1.50;1.50;;;;;;;;4995618;28;45462;-76
2022/05/16 03:33:47;;;;;;;;;1.67;1.67;;;;;;;;5003151;28;46544;-75
2022/05/16 03:36:12;;;;;;;;;1.00;1.00;;;;;;;;4979394;28;45163;-76
2022/05/16 03:41:21;;;;;;;;;1.25;1.25;;;;;;;;4995215;28;45451;-76
2022/05/16 03:43:47;;;;;;;;;2.00;2.00;;;;;;;;4987183;28;46224;-76
2022/05/16 03:46:12;;;;;;;;;2.00;2.00;;;;;;;;4986306;28;45365;-76
2022/05/16 03:48:38;;;;;;;;;2.33;1.67;;;;;;;;4996795;28;45302;-76
2022/05/16 03:51:04;;;;;;;;;0.67;0.67;;;;;;;;4979561;28;45172;-76
2022/05/16 03:53:30;;;;;;;;;2.00;2.00;;;;;;;;4982224;28;46050;-76
2022/05/16 03:55:55;;;;;;;;;2.67;2.67;;;;;;;;4993349;28;45446;-76
2022/05/16 03:58:20;;;;;;;;;1.75;0.75;;;;;;;;5002381;28;45536;-76
2022/05/16 04:00:46;;;;;;;;;1.67;1.67;;;;;;;;5002220;28;45472;-77
2022/05/16 04:03:11;;;;;;;;;3.00;3.00;;;;;;;;4993886;28;46249;-77
2022/05/16 04:05:37;;;;;;;;;2.00;2.00;;;;;;;;4981157;28;45273;-76
2022/05/16 04:08:03;;;;;;;;;2.00;2.00;;;;;;;;4993473;28;45807;-76
2022/05/16 04:10:28;;;;;;;;;2.67;1.00;;;;;;;;4998969;28;45416;-76
2022/05/16 04:12:54;;;;;;;;;1.33;1.33;;;;;;;;4994578;28;47102;-77
2022/05/16 04:15:21;;;;;;;;;2.33;2.33;;;;;;;;4994821;28;45582;-75
2022/05/16 04:17:46;;;;;;;;;2.67;2.67;;;;;;;;4995816;28;45207;-76
2022/05/16 04:20:12;;;;;;;;;2.00;2.00;;;;;;;;4989668;28;45414;-78
2022/05/16 04:22:37;;;;;;;;;3.00;3.00;;;;;;;;4998261;28;45972;-76
2022/05/16 04:25:03;;;;;;;;;1.00;1.00;;;;;;;;4993035;28;45306;-76
2022/05/16 04:27:28;;;;;;;;;2.67;2.67;;;;;;;;4980768;28;45497;-77
2022/05/16 04:29:53;;;;;;;;;1.67;1.00;;;;;;;;4979290;28;45512;-76
2022/05/16 04:32:19;;;;;;;;;4.00;2.00;;;;;;;;4998175;28;46226;-76
2022/05/16 04:34:44;;;;;;;;;2.00;2.00;;;;;;;;4998205;28;48103;-76
2022/05/16 04:37:09;;;;;;;;;0.50;0.50;;;;;;;;4993810;28;45508;-76
2022/05/16 04:39:34;;;;;;;;;3.00;2.00;;;;;;;;4982227;28;45330;-76
2022/05/16 04:44:43;;;;;;;;;2.00;2.00;;;;;;;;4987911;28;45492;-76
2022/05/16 04:47:09;;;;;;;;;4.00;4.00;;;;;;;;4994700;28;45388;-76
2022/05/16 04:49:35;;;;;;;;;5.00;3.00;;;;;;;;4994075;28;48026;-77
2022/05/16 04:52:00;;;;;;;;;2.33;2.33;;;;;;;;4994266;28;46227;-77
2022/05/16 04:54:26;;;;;;;;;3.00;3.00;;;;;;;;4994131;28;45503;-76
2022/05/16 04:56:51;;;;;;;;;3.00;3.00;;;;;;;;4981356;28;45591;-77
2022/05/16 04:59:20;;;;;;;;;2.75;2.50;;;;;;;;4992726;28;45328;-76
2022/05/16 05:01:46;;;;;;;;;3.00;3.00;;;;;;;;4989971;28;46276;-76
2022/05/16 05:04:11;;;;;;;;;4.00;4.00;;;;;;;;4988892;28;45387;-76
2022/05/16 05:06:36;;;;;;;;;3.25;3.25;;;;;;;;4995070;28;45482;-76
2022/05/16 05:09:02;;;;;;;;;4.00;4.00;;;;;;;;4995748;28;45536;-77
2022/05/16 05:16:55;;;;;;;;;2.75;2.75;;;;;;;;4994872;28;45407;-76
2022/05/16 05:19:20;;;;;;;;;3.25;3.25;;;;;;;;4992866;28;45394;-76
2022/05/16 05:21:46;;;;;;;;;3.00;3.00;;;;;;;;4994466;28;46119;-76
2022/05/16 05:24:11;;;;;;;;;3.00;2.00;;;;;;;;4994099;28;45306;-76
2022/05/16 05:26:37;;;;;;;;;2.00;2.00;;;;;;;;4986551;28;45221;-75
2022/05/16 05:29:02;;;;;;;;;2.67;2.67;;;;;;;;4992338;28;45460;-80
2022/05/16 05:31:28;;;;;;;;;3.00;3.00;;;;;;;;4992255;28;46894;-76
2022/05/16 05:33:53;;;;;;;;;2.00;2.00;;;;;;;;4993824;28;45368;-76
2022/05/16 05:36:19;;;;;;;;;4.33;4.00;;;;;;;;4982323;28;45213;-82
2022/05/16 05:38:44;;;;;;;;;1.00;1.00;;;;;;;;4998172;28;45244;-75
2022/05/16 05:41:09;;;;;;;;;3.00;2.25;;;;;;;;4996166;28;46011;-83
2022/05/16 05:43:35;;;;;;;;;2.00;2.00;;;;;;;;4997163;28;45436;-78
2022/05/16 05:46:02;;;;;;;;;4.75;4.00;;;;;;;;4994190;28;45606;-79
2022/05/16 05:48:28;;;;;;;;;3.75;2.00;;;;;;;;4992041;28;45512;-79
2022/05/16 05:50:53;;;;;;;;;3.00;3.00;;;;;;;;4994635;28;46054;-78
2022/05/16 05:53:19;;;;;;;;;2.25;2.25;;;;;;;;4993222;28;45345;-78
2022/05/16 05:55:47;;;;;;;;;2.33;2.33;;;;;;;;4995392;28;45409;-78
2022/05/16 05:58:12;;;;;;;;;4.00;4.00;;;;;;;;4995699;28;45358;-77
2022/05/16 06:00:37;;;;;;;;;5.00;5.00;;;;;;;;4993909;28;45598;-78
2022/05/16 06:03:02;;;;;;;;;5.75;3.75;;;;;;;;4993761;28;45311;-79
2022/05/16 06:05:27;;;;;;;;;4.75;3.50;;;;;;;;4996830;28;45343;-79
2022/05/16 06:07:53;;;;;;;;;4.75;4.75;;;;;;;;4995435;28;45386;-78
2022/05/16 06:10:19;;;;;;;;;5.25;5.00;;;;;;;;4993556;28;46287;-78
2022/05/16 06:12:44;;;;;;;;;8.00;6.50;;;;;;;;4995681;28;45568;-80
2022/05/16 06:15:10;;;;;;;;;4.50;3.75;;;;;;;;4994681;28;45452;-80
2022/05/16 06:17:35;;;;;;;;;8.25;6.75;;;;;;;;4996945;28;45530;-79
2022/05/16 06:20:04;;;;;;;;;6.25;6.00;;;;;;;;4995166;28;47159;-77
2022/05/16 06:22:34;;;;;;;;;8.50;6.50;;;;;;;;4998221;28;45437;-77
2022/05/16 06:27:43;;;;;;;;;7.00;5.00;;;;;;;;4987952;28;45473;-84
2022/05/16 06:30:11;;;;;;;;;9.00;6.50;;;;;;;;4980137;28;46154;-76
2022/05/16 06:32:36;;;;;;;;;5.00;5.00;;;;;;;;4997283;28;45557;-74
2022/05/16 06:35:01;;;;;;;;;5.00;4.00;;;;;;;;4989095;28;45405;-75
2022/05/16 06:37:26;;;;;;;;;4.50;4.50;;;;;;;;4991235;28;45309;-75
2022/05/16 06:39:51;;;;;;;;;3.75;3.75;;;;;;;;4985113;28;45527;-75
2022/05/16 06:42:16;;;;;;;;;6.00;5.00;;;;;;;;4996235;28;45340;-76
2022/05/16 06:44:42;;;;;;;;;5.00;5.00;;;;;;;;4989283;28;45342;-75
2022/05/16 06:47:08;;;;;;;;;5.00;4.67;;;;;;;;4985648;28;45456;-76
2022/05/16 06:49:33;;;;;;;;;4.00;4.00;;;;;;;;4984672;28;46554;-75
2022/05/16 06:51:58;;;;;;;;;6.00;3.00;;;;;;;;4986022;28;45510;-75
2022/05/16 06:54:23;;;;;;;;;5.00;1.75;;;;;;;;4995872;28;45345;-75
2022/05/16 06:56:49;;;;;;;;;5.00;4.50;;;;;;;;4996599;28;45321;-75
2022/05/16 06:59:14;;;;;;;;;3.00;3.00;;;;;;;;4995075;28;45443;-75
2022/05/16 07:01:39;;;;;;;;;4.50;4.00;;;;;;;;4991798;28;45718;-74
2022/05/16 07:04:04;;;;;;;;;5.33;5.33;;;;;;;;4994869;28;45379;-74
2022/05/16 07:06:30;;;;;;;;;5.50;5.50;;;;;;;;4994801;28;45563;-75
2022/05/16 07:08:55;;;;;;;;;6.25;5.50;;;;;;;;4996115;28;45542;-74
2022/05/16 07:11:20;;;;;;;;;4.00;4.00;;;;;;;;4995571;28;45397;-75
2022/05/16 07:13:46;;;;;;;;;8.00;6.75;;;;;;;;4994522;28;45598;-76
2022/05/16 07:16:11;;;;;;;;;5.50;5.50;;;;;;;;4996337;28;46281;-76
2022/05/16 07:18:36;;;;;;;;;4.00;4.00;;;;;;;;4994598;28;45967;-73
2022/05/16 07:21:02;;;;;;;;;5.00;5.00;;;;;;;;4993887;28;45332;-76
2022/05/16 07:23:27;;;;;;;;;4.50;4.00;;;;;;;;4988837;28;45510;-75
2022/05/16 07:28:37;;;;;;;;;4.00;3.00;;;;;;;;4995187;28;49185;-75
2022/05/16 07:31:02;;;;;;;;;3.00;3.00;;;;;;;;5005132;28;45424;-75
2022/05/16 07:33:27;;;;;;;;;3.67;3.33;;;;;;;;5003172;28;45490;-76
2022/05/16 07:35:55;;;;;;;;;4.33;4.33;;;;;;;;4995803;28;45404;-75
2022/05/16 07:38:20;;;;;;;;;5.50;4.25;;;;;;;;4995181;28;45397;-75
2022/05/16 07:40:46;;;;;;;;;7.00;3.75;;;;;;;;4994789;28;45393;-76
2022/05/16 07:43:11;;;;;;;;;3.00;3.00;;;;;;;;4992836;28;45439;-75
2022/05/16 07:45:36;;;;;;;;;3.00;3.00;;;;;;;;4982933;28;45442;-75
2022/05/16 07:48:03;;;;;;;;;3.75;3.75;;;;;;;;4978394;28;46176;-76
2022/05/16 07:50:28;;;;;;;;;6.25;6.00;;;;;;;;5004130;28;45399;-76
2022/05/16 07:52:54;;;;;;;;;4.00;4.00;;;;;;;;4997961;28;45365;-76
2022/05/16 07:55:21;;;;;;;;;6.00;4.75;;;;;;;;4991333;28;45463;-73
2022/05/16 07:57:46;;;;;;;;;4.25;3.00;;;;;;;;4990842;28;48286;-74
2022/05/16 08:00:12;;;;;;;;;3.67;3.67;;;;;;;;5011038;28;45444;-72
2022/05/16 08:02:39;;;;;;;;;2.67;2.67;;;;;;;;4991134;28;45385;-75
2022/05/16 08:05:04;;;;;;;;;3.00;3.00;;;;;;;;4985068;28;45405;-76
2022/05/16 08:07:29;;;;;;;;;4.00;4.00;;;;;;;;4983602;28;46085;-75
2022/05/16 08:12:39;;;;;;;;;4.00;4.00;;;;;;;;4982071;28;45513;-75
2022/05/16 08:15:05;;;;;;;;;4.67;3.67;;;;;;;;4979243;28;45600;-76
2022/05/16 08:17:30;;;;;;;;;3.00;3.00;;;;;;;;4999957;28;47276;-75
2022/05/16 08:19:58;;;;;;;;;3.75;3.75;;;;;;;;4989460;28;45440;-75
2022/05/16 08:22:28;;;;;;;;;2.33;2.33;;;;;;;;4994674;28;45269;-75
2022/05/16 08:24:53;;;;;;;;;3.00;3.00;;;;;;;;4994407;28;45424;-74
2022/05/16 08:27:19;;;;;;;;;3.00;3.00;;;;;;;;4993905;28;46146;-76
2022/05/16 08:29:44;;;;;;;;;3.00;3.00;;;;;;;;4995544;28;45326;-75
2022/05/16 08:32:13;;;;;;;;;4.00;4.00;;;;;;;;4994689;28;45317;-75
2022/05/16 08:34:38;;;;;;;;;4.00;4.00;;;;;;;;4998597;28;45655;-75
2022/05/16 08:39:55;;;;;;;;;4.33;4.33;;;;;;;;4997726;28;45400;-74
2022/05/16 08:42:30;;;;;;;;;4.00;4.00;;;;;;;;4982621;28;45561;-73
2022/05/16 08:45:03;;;;;;;;;3.75;3.75;;;;;;;;4998178;28;45493;-75
2022/05/16 08:47:57;;;;;;;;;5.00;5.00;;;;;;;;4998188;28;47190;-74
2022/05/16 08:50:26;;;;;;;;;3.67;3.00;;;;;;;;4994634;28;45504;-75
2022/05/16 08:53:03;;;;;;;;;4.75;4.00;;;;;;;;4997826;28;45515;-75
2022/05/16 08:55:34;;;;;;;;;3.00;3.00;;;;;;;;4992592;28;45549;-74
2022/05/16 08:58:04;;;;;;;;;6.67;6.67;;;;;;;;4993526;28;46983;-75
2022/05/16 09:00:41;;;;;;;;;3.33;3.33;;;;;;;;4994013;28;45317;-74
2022/05/16 09:03:08;;;;;;;;;4.33;4.33;;;;;;;;4998202;28;45561;-75
2022/05/16 09:05:38;;;;;;;;;4.50;4.50;;;;;;;;4984373;28;45445;-74
2022/05/16 09:08:06;;;;;;;;;4.33;4.33;;;;;;;;4988511;28;46227;-74
2022/05/16 09:10:53;;;;;;;;;4.00;3.00;;;;;;;;4991943;28;45575;-76
2022/05/16 09:13:19;;;;;;;;;3.67;3.67;;;;;;;;4986696;28;45396;-75
2022/05/16 09:15:55;;;;;;;;;5.50;3.75;;;;;;;;4985274;28;45214;-75
2022/05/16 09:18:24;;;;;;;;;3.50;3.50;;;;;;;;4997684;28;47149;-75
2022/05/16 09:21:09;;;;;;;;;2.25;2.25;;;;;;;;4982104;28;45372;-75
2022/05/16 09:23:42;;;;;;;;;6.00;4.50;;;;;;;;4993028;28;45283;-75
2022/05/16 09:26:17;;;;;;;;;3.00;3.00;;;;;;;;4986358;28;45451;-75
2022/05/16 09:28:55;;;;;;;;;4.50;3.00;;;;;;;;4995488;28;46288;-74
2022/05/16 09:31:30;;;;;;;;;4.25;4.25;;;;;;;;4996449;28;45585;-74
2022/05/16 09:33:56;;;;;;;;;4.25;4.25;;;;;;;;4996878;28;45328;-74
2022/05/16 09:36:23;;;;;;;;;5.67;3.67;;;;;;;;4982026;28;45413;-75
2022/05/16 09:38:49;;;;;;;;;4.00;2.67;;;;;;;;4997166;28;46520;-75
2022/05/16 09:41:20;;;;;;;;;3.33;3.33;;;;;;;;5006016;28;45413;-76
2022/05/16 09:43:51;;;;;;;;;3.00;3.00;;;;;;;;4989512;28;45400;-74
2022/05/16 09:46:29;;;;;;;;;4.00;3.00;;;;;;;;4989248;28;45412;-75
2022/05/16 09:49:05;;;;;;;;;5.00;4.00;;;;;;;;4996406;28;47254;-74
2022/05/16 09:51:37;;;;;;;;;5.75;3.00;;;;;;;;4983108;28;45402;-73
2022/05/16 09:54:10;;;;;;;;;3.33;3.33;;;;;;;;4996418;28;45439;-75
2022/05/16 09:56:36;;;;;;;;;3.50;3.50;;;;;;;;4988765;28;45442;-75
2022/05/16 09:59:02;;;;;;;;;2.33;2.33;;;;;;;;4996407;28;46976;-76
2022/05/16 10:01:35;;;;;;;;;3.00;3.00;;;;;;;;4997010;28;45535;-75
2022/05/16 10:04:14;;;;;;;;;3.00;3.00;;;;;;;;4996760;28;45401;-75
2022/05/16 10:06:43;;;;;;;;;1.00;1.00;;;;;;;;4995790;28;45406;-76
2022/05/16 10:09:14;;;;;;;;;4.50;4.00;;;;;;;;4995378;28;46951;-72
2022/05/16 10:11:40;;;;;;;;;3.75;3.00;;;;;;;;4997301;28;45349;-75
2022/05/16 10:14:06;;;;;;;;;2.00;2.00;;;;;;;;4986413;28;45635;-76
2022/05/16 10:16:31;;;;;;;;;4.00;2.67;;;;;;;;4985185;28;45273;-76
2022/05/16 10:18:58;;;;;;;;;3.33;2.67;;;;;;;;4985191;28;46271;-72
2022/05/16 10:21:29;;;;;;;;;1.75;1.75;;;;;;;;4989927;28;45466;-76
2022/05/16 10:23:55;;;;;;;;;3.00;3.00;;;;;;;;4992494;28;45844;-73
2022/05/16 10:26:21;;;;;;;;;3.00;3.00;;;;;;;;4985378;28;45430;-72
2022/05/16 10:28:51;;;;;;;;;4.00;4.00;;;;;;;;4994504;28;46242;-75
2022/05/16 10:34:09;;;;;;;;;3.50;3.50;;;;;;;;4987432;28;45424;-76
2022/05/16 10:36:35;;;;;;;;;3.00;3.00;;;;;;;;4987212;28;45547;-76
2022/05/16 10:39:01;;;;;;;;;2.75;2.75;;;;;;;;4996144;28;46984;-75
2022/05/16 10:41:30;;;;;;;;;3.25;3.25;;;;;;;;4996274;28;45471;-76
2022/05/16 10:44:01;;;;;;;;;3.00;3.00;;;;;;;;4991412;28;45444;-75
2022/05/16 10:46:34;;;;;;;;;2.33;2.33;;;;;;;;4996013;28;45524;-76
2022/05/16 10:49:05;;;;;;;;;3.50;3.50;;;;;;;;4998713;28;47476;-75
2022/05/16 10:51:38;;;;;;;;;4.67;3.00;;;;;;;;4990619;28;45496;-74
2022/05/16 10:54:11;;;;;;;;;2.00;2.00;;;;;;;;4995400;28;45347;-75
2022/05/16 10:56:39;;;;;;;;;4.00;2.67;;;;;;;;4981231;28;45208;-75
2022/05/16 10:59:23;;;;;;;;;3.33;3.33;;;;;;;;4994152;28;46167;-76
2022/05/16 11:01:49;;;;;;;;;3.00;3.00;;;;;;;;4995487;28;45508;-75
2022/05/16 11:04:32;;;;;;;;;3.00;2.00;;;;;;;;4994009;28;45417;-75
2022/05/16 11:07:11;;;;;;;;;2.00;2.00;;;;;;;;4995091;28;45450;-76
2022/05/16 11:10:11;;;;;;;;;2.00;2.00;;;;;;;;4990766;28;45610;-73
2022/05/16 11:12:39;;;;;;;;;3.00;3.00;;;;;;;;4960617;28;45462;-75
2022/05/16 11:15:05;;;;;;;;;3.00;3.00;;;;;;;;4974194;28;45384;-75
2022/05/16 11:17:34;;;;;;;;;2.67;2.00;;;;;;;;4974533;28;45455;-76
2022/05/16 11:20:16;;;;;;;;;2.00;2.00;;;;;;;;4973202;28;47197;-75
2022/05/16 11:22:43;;;;;;;;;3.67;3.67;;;;;;;;4974919;28;45724;-76
2022/05/16 11:25:08;;;;;;;;;2.00;2.00;;;;;;;;4980684;28;45506;-75
2022/05/16 11:27:52;;;;;;;;;4.00;4.00;;;;;;;;4962227;28;45520;-76
2022/05/16 11:30:33;;;;;;;;;2.25;2.25;;;;;;;;4973648;28;45423;-75
2022/05/16 11:33:17;;;;;;;;;5.33;2.00;;;;;;;;4972829;28;45502;-76
2022/05/16 11:35:46;;;;;;;;;2.00;2.00;;;;;;;;4974289;28;45389;-76
2022/05/16 11:38:21;;;;;;;;;4.33;3.00;;;;;;;;4981936;28;45452;-75
2022/05/16 11:41:12;;;;;;;;;2.67;2.00;;;;;;;;4972697;28;47340;-75
2022/05/16 11:43:41;;;;;;;;;3.00;3.00;;;;;;;;4965346;28;45483;-74
2022/05/16 11:46:09;;;;;;;;;3.00;3.00;;;;;;;;4973101;28;45679;-74
2022/05/16 11:48:54;;;;;;;;;2.67;2.00;;;;;;;;4988578;28;45424;-74
2022/05/16 11:51:28;;;;;;;;;3.00;3.00;;;;;;;;4982934;28;46544;-75
2022/05/16 11:53:59;;;;;;;;;2.67;2.67;;;;;;;;4991785;28;45258;-74
2022/05/16 12:02:19;;;;;;;;;3.33;3.00;;;;;;;;4981006;28;45513;-75
2022/05/16 12:04:47;;;;;;;;;2.67;2.67;;;;;;;;4966508;28;45721;-74
2022/05/16 12:07:17;;;;;;;;;4.00;4.00;;;;;;;;4961816;28;45486;-74
2022/05/16 12:09:54;;;;;;;;;4.67;4.00;;;;;;;;4963603;28;45303;-75
2022/05/16 12:12:40;;;;;;;;;2.67;2.67;;;;;;;;4973034;28;47221;-74
2022/05/16 12:15:14;;;;;;;;;2.67;2.67;;;;;;;;4981168;28;45445;-75
2022/05/16 12:17:48;;;;;;;;;3.00;3.00;;;;;;;;4973992;28;45325;-75
2022/05/16 12:20:14;;;;;;;;;2.33;2.00;;;;;;;;4975226;28;45689;-75
2022/05/16 12:22:39;;;;;;;;;2.00;2.00;;;;;;;;4974180;28;46363;-75
2022/05/16 12:25:04;;;;;;;;;2.00;2.00;;;;;;;;4968116;28;45450;-74
2022/05/16 12:27:30;;;;;;;;;2.00;2.00;;;;;;;;4972607;28;45344;-75
2022/05/16 12:29:56;;;;;;;;;2.67;2.67;;;;;;;;4973186;28;45681;-76
2022/05/16 12:32:31;;;;;;;;;2.67;2.33;;;;;;;;4973045;28;46289;-75
2022/05/16 12:35:00;;;;;;;;;5.00;3.00;;;;;;;;4968343;28;45488;-75
2022/05/16 12:37:26;;;;;;;;;2.00;2.00;;;;;;;;4967562;28;45671;-74
2022/05/16 12:39:55;;;;;;;;;3.67;3.67;;;;;;;;4982903;28;45382;-75
2022/05/16 12:42:46;;;;;;;;;4.00;2.00;;;;;;;;4979091;28;47397;-75
2022/05/16 12:45:23;;;;;;;;;5.00;3.33;;;;;;;;5001662;28;45452;-75
2022/05/16 12:47:48;;;;;;;;;2.00;2.00;;;;;;;;4991354;28;45400;-74
2022/05/16 12:50:16;;;;;;;;;2.00;2.00;;;;;;;;4994905;28;45328;-74
2022/05/16 12:53:05;;;;;;;;;2.67;2.67;;;;;;;;4994263;28;46285;-75
2022/05/16 12:55:41;;;;;;;;;2.00;2.00;;;;;;;;4988961;28;45400;-75
2022/05/16 12:58:24;;;;;;;;;5.00;2.00;;;;;;;;4983390;28;45381;-75
2022/05/16 13:00:58;;;;;;;;;3.00;3.00;;;;;;;;4993080;28;45500;-74
2022/05/16 13:03:43;;;;;;;;;2.67;2.00;;;;;;;;4990736;28;46205;-74
2022/05/16 13:06:23;;;;;;;;;3.67;2.00;;;;;;;;4991590;28;45565;-74
2022/05/16 13:08:53;;;;;;;;;3.33;1.67;;;;;;;;4998530;28;46832;-75
2022/05/16 13:11:37;;;;;;;;;2.00;2.00;;;;;;;;4990022;28;45369;-75
2022/05/16 13:14:05;;;;;;;;;2.33;2.33;;;;;;;;4984581;28;45524;-75
2022/05/16 13:16:34;;;;;;;;;3.00;3.00;;;;;;;;4987393;28;45451;-75
2022/05/16 13:19:11;;;;;;;;;2.00;2.00;;;;;;;;4992668;28;45549;-74
2022/05/16 13:21:40;;;;;;;;;1.00;1.00;;;;;;;;4984229;28;45394;-75
2022/05/16 13:24:07;;;;;;;;;2.00;2.00;;;;;;;;4991102;28;46325;-75
2022/05/16 13:29:22;;;;;;;;;2.33;2.33;;;;;;;;4991973;28;45498;-75
2022/05/16 13:31:52;;;;;;;;;2.00;2.00;;;;;;;;4989844;28;45376;-74
2022/05/16 13:34:42;;;;;;;;;3.00;3.00;;;;;;;;4992256;28;46058;-74
2022/05/16 13:37:08;;;;;;;;;1.33;1.33;;;;;;;;5006523;28;45491;-74
2022/05/16 13:39:34;;;;;;;;;3.67;2.00;;;;;;;;4997081;28;45392;-74
2022/05/16 13:42:01;;;;;;;;;2.00;2.00;;;;;;;;4995994;28;45428;-74
2022/05/16 13:44:33;;;;;;;;;3.00;3.00;;;;;;;;4997687;28;45448;-75
2022/05/16 13:47:00;;;;;;;;;4.75;3.00;;;;;;;;4992287;28;45494;-74
2022/05/16 13:49:26;;;;;;;;;4.00;3.00;;;;;;;;4990344;28;45377;-74
2022/05/16 13:51:52;;;;;;;;;2.00;2.00;;;;;;;;4996850;28;45635;-75
2022/05/16 13:54:25;;;;;;;;;3.00;1.00;;;;;;;;4996850;28;46277;-75
2022/05/16 13:56:52;;;;;;;;;3.33;2.00;;;;;;;;5001884;28;45400;-74
2022/05/16 13:59:20;;;;;;;;;2.00;2.00;;;;;;;;5002624;28;45558;-75
2022/05/16 14:01:58;;;;;;;;;2.00;2.00;;;;;;;;5000927;28;45405;-75
2022/05/16 14:04:25;;;;;;;;;1.67;1.67;;;;;;;;4997655;28;46092;-75
2022/05/16 14:06:51;;;;;;;;;2.00;2.00;;;;;;;;4996479;28;45495;-73
2022/05/16 14:09:16;;;;;;;;;2.00;2.00;;;;;;;;4996970;28;45491;-75
2022/05/16 14:11:43;;;;;;;;;1.00;1.00;;;;;;;;4999206;28;45478;-75
2022/05/16 14:14:10;;;;;;;;;2.00;2.00;;;;;;;;4997193;28;47393;-75
2022/05/16 14:16:40;;;;;;;;;4.00;2.00;;;;;;;;4990872;28;45183;-75
2022/05/16 14:19:05;;;;;;;;;3.33;2.00;;;;;;;;4987132;28;45373;-74
2022/05/16 14:21:45;;;;;;;;;3.67;3.00;;;;;;;;5004724;28;45376;-74
2022/05/16 14:24:11;;;;;;;;;1.33;1.33;;;;;;;;5000584;28;46747;-74
2022/05/16 14:26:39;;;;;;;;;2.67;2.00;;;;;;;;4997030;28;45357;-75
2022/05/16 14:29:19;;;;;;;;;1.00;1.00;;;;;;;;4986220;28;45857;-74
2022/05/16 14:31:45;;;;;;;;;1.67;1.67;;;;;;;;4991804;28;45471;-75
2022/05/16 14:34:22;;;;;;;;;2.00;2.00;;;;;;;;4995991;28;46354;-75
2022/05/16 14:36:48;;;;;;;;;2.00;2.00;;;;;;;;4995927;28;45508;-74
2022/05/16 14:39:21;;;;;;;;;2.00;2.00;;;;;;;;5009625;28;45380;-75
2022/05/16 14:42:06;;;;;;;;;2.00;2.00;;;;;;;;4998637;28;45436;-74
2022/05/16 14:44:37;;;;;;;;;3.00;2.00;;;;;;;;4988948;28;46057;-75
2022/05/16 14:47:13;;;;;;;;;2.00;2.00;;;;;;;;4995796;28;45623;-75
2022/05/16 14:49:39;;;;;;;;;2.00;1.00;;;;;;;;4990776;28;45389;-75
2022/05/16 14:52:04;;;;;;;;;1.00;1.00;;;;;;;;4996250;28;45678;-74
2022/05/16 14:54:41;;;;;;;;;2.00;2.00;;;;;;;;4981204;28;46282;-75
2022/05/16 14:57:07;;;;;;;;;1.00;1.00;;;;;;;;4980048;28;45440;-75
2022/05/16 14:59:33;;;;;;;;;2.00;2.00;;;;;;;;4998580;28;45444;-75
2022/05/16 15:04:42;;;;;;;;;1.00;1.00;;;;;;;;4991181;28;45499;-74
2022/05/16 15:07:09;;;;;;;;;1.00;1.00;;;;;;;;4994873;28;45688;-74
2022/05/16 15:09:34;;;;;;;;;1.33;1.33;;;;;;;;4994607;28;45306;-75
2022/05/16 15:12:02;;;;;;;;;1.00;1.00;;;;;;;;4997810;28;45424;-75
2022/05/16 15:14:28;;;;;;;;;2.67;2.67;;;;;;;;4990424;28;47006;-75
2022/05/16 15:16:55;;;;;;;;;1.00;1.00;;;;;;;;4995572;28;45510;-74
2022/05/16 15:19:21;;;;;;;;;1.33;1.00;;;;;;;;4995608;28;45336;-74
2022/05/16 15:21:47;;;;;;;;;1.33;1.33;;;;;;;;4995801;28;45285;-74
2022/05/16 15:24:21;;;;;;;;;1.67;1.67;;;;;;;;4988910;28;46569;-75
2022/05/16 15:26:46;;;;;;;;;1.00;1.00;;;;;;;;4984075;28;45542;-75
2022/05/16 15:29:11;;;;;;;;;2.00;2.00;;;;;;;;4995134;28;45375;-75
2022/05/16 15:31:37;;;;;;;;;2.00;2.00;;;;;;;;4989473;28;45444;-74